sensor_id;sensor_type;location;lat;lon;timestamp;P1;durP1;ratioP1;P2;durP2;ratioP2
46136;SDS011;31871;49.418;8.752;2022-10-30T00:00:03;12.55;;;4.80;;
46136;SDS011;31871;49.418;8.752;2022-10-30T00:02:29;18.95;;;4.97;;
46136;SDS011;31871;49.418;8.752;2022-10-30T00:04:55;24.50;;;5.70;;
46136;SDS011;31871;49.418;8.752;2022-10-30T00:07:20;14.02;;;5.28;;
46136;SDS011;31871;49.418;8.752;2022-10-30T00:09:46;21.63;;;5.20;;
46136;SDS011;31871;49.418;8.752;2022-10-30T00:12:11;18.88;;;5.15;;
46136;SDS011;31871;49.418;8.752;2022-10-30T00:14:37;16.85;;;5.60;;
46136;SDS011;31871;49.418;8.752;2022-10-30T00:17:03;31.90;;;5.47;;
46136;SDS011;31871;49.418;8.752;2022-10-30T00:19:28;16.95;;;4.95;;
46136;SDS011;31871;49.418;8.752;2022-10-30T00:21:54;19.05;;;5.35;;
46136;SDS011;31871;49.418;8.752;2022-10-30T00:24:21;15.25;;;5.57;;
46136;SDS011;31871;49.418;8.752;2022-10-30T00:26:47;17.38;;;5.90;;
46136;SDS011;31871;49.418;8.752;2022-10-30T00:29:13;13.48;;;4.78;;
46136;SDS011;31871;49.418;8.752;2022-10-30T00:31:39;27.38;;;5.10;;
46136;SDS011;31871;49.418;8.752;2022-10-30T00:34:05;16.88;;;5.38;;
46136;SDS011;31871;49.418;8.752;2022-10-30T00:36:31;18.15;;;5.57;;
46136;SDS011;31871;49.418;8.752;2022-10-30T00:38:56;18.50;;;5.68;;
46136;SDS011;31871;49.418;8.752;2022-10-30T00:41:22;16.73;;;4.57;;
46136;SDS011;31871;49.418;8.752;2022-10-30T00:43:48;17.02;;;5.47;;
46136;SDS011;31871;49.418;8.752;2022-10-30T00:46:29;17.42;;;5.32;;
46136;SDS011;31871;49.418;8.752;2022-10-30T00:49:14;13.43;;;4.65;;
46136;SDS011;31871;49.418;8.752;2022-10-30T00:51:42;14.50;;;4.97;;
46136;SDS011;31871;49.418;8.752;2022-10-30T00:54:11;19.88;;;5.30;;
46136;SDS011;31871;49.418;8.752;2022-10-30T00:56:40;19.70;;;5.15;;
46136;SDS011;31871;49.418;8.752;2022-10-30T00:59:07;24.70;;;5.40;;
46136;SDS011;31871;49.418;8.752;2022-10-30T01:01:35;20.15;;;5.47;;
46136;SDS011;31871;49.418;8.752;2022-10-30T01:04:04;16.77;;;5.88;;
46136;SDS011;31871;49.418;8.752;2022-10-30T01:06:33;22.20;;;6.10;;
46136;SDS011;31871;49.418;8.752;2022-10-30T01:09:02;28.10;;;6.60;;
46136;SDS011;31871;49.418;8.752;2022-10-30T01:11:28;22.02;;;6.28;;
46136;SDS011;31871;49.418;8.752;2022-10-30T01:13:54;22.52;;;5.50;;
46136;SDS011;31871;49.418;8.752;2022-10-30T01:25:20;15.77;;;4.73;;
46136;SDS011;31871;49.418;8.752;2022-10-30T01:28:12;17.83;;;6.32;;
46136;SDS011;31871;49.418;8.752;2022-10-30T01:31:05;16.65;;;5.20;;
46136;SDS011;31871;49.418;8.752;2022-10-30T01:36:48;14.95;;;4.20;;
46136;SDS011;31871;49.418;8.752;2022-10-30T01:39:31;16.27;;;5.60;;
46136;SDS011;31871;49.418;8.752;2022-10-30T01:45:04;18.77;;;4.88;;
46136;SDS011;31871;49.418;8.752;2022-10-30T01:47:46;17.83;;;5.28;;
46136;SDS011;31871;49.418;8.752;2022-10-30T01:50:35;22.15;;;5.05;;
46136;SDS011;31871;49.418;8.752;2022-10-30T01:53:23;15.07;;;4.90;;
46136;SDS011;31871;49.418;8.752;2022-10-30T02:00:15;22.27;;;5.13;;
46136;SDS011;31871;49.418;8.752;2022-10-30T02:02:16;23.83;;;5.22;;
46136;SDS011;31871;49.418;8.752;2022-10-30T02:04:41;16.83;;;5.22;;
46136;SDS011;31871;49.418;8.752;2022-10-30T02:07:08;15.25;;;4.95;;
46136;SDS011;31871;49.418;8.752;2022-10-30T02:09:35;14.68;;;5.47;;
46136;SDS011;31871;49.418;8.752;2022-10-30T02:12:01;23.45;;;5.13;;
46136;SDS011;31871;49.418;8.752;2022-10-30T02:14:29;21.38;;;6.07;;
46136;SDS011;31871;49.418;8.752;2022-10-30T02:16:57;21.20;;;4.75;;
46136;SDS011;31871;49.418;8.752;2022-10-30T02:19:26;16.60;;;5.05;;
46136;SDS011;31871;49.418;8.752;2022-10-30T02:21:52;23.67;;;5.32;;
46136;SDS011;31871;49.418;8.752;2022-10-30T02:24:18;13.27;;;4.90;;
46136;SDS011;31871;49.418;8.752;2022-10-30T02:26:44;18.92;;;5.50;;
46136;SDS011;31871;49.418;8.752;2022-10-30T02:29:09;17.17;;;4.90;;
46136;SDS011;31871;49.418;8.752;2022-10-30T02:31:35;13.82;;;5.10;;
46136;SDS011;31871;49.418;8.752;2022-10-30T02:34:01;20.35;;;5.25;;
46136;SDS011;31871;49.418;8.752;2022-10-30T02:36:26;19.05;;;5.43;;
46136;SDS011;31871;49.418;8.752;2022-10-30T02:38:52;20.02;;;5.32;;
46136;SDS011;31871;49.418;8.752;2022-10-30T02:41:19;16.02;;;4.85;;
46136;SDS011;31871;49.418;8.752;2022-10-30T02:43:45;21.17;;;5.03;;
46136;SDS011;31871;49.418;8.752;2022-10-30T02:46:10;13.60;;;4.50;;
46136;SDS011;31871;49.418;8.752;2022-10-30T02:48:36;18.05;;;5.70;;
46136;SDS011;31871;49.418;8.752;2022-10-30T02:51:02;20.92;;;5.43;;
46136;SDS011;31871;49.418;8.752;2022-10-30T02:53:28;16.25;;;4.68;;
46136;SDS011;31871;49.418;8.752;2022-10-30T02:55:54;15.95;;;4.70;;
46136;SDS011;31871;49.418;8.752;2022-10-30T02:58:20;18.50;;;4.80;;
46136;SDS011;31871;49.418;8.752;2022-10-30T03:00:45;12.10;;;4.72;;
46136;SDS011;31871;49.418;8.752;2022-10-30T03:03:11;18.92;;;5.50;;
46136;SDS011;31871;49.418;8.752;2022-10-30T03:05:36;20.55;;;5.65;;
46136;SDS011;31871;49.418;8.752;2022-10-30T03:08:02;18.10;;;4.95;;
46136;SDS011;31871;49.418;8.752;2022-10-30T03:10:28;30.08;;;5.25;;
46136;SDS011;31871;49.418;8.752;2022-10-30T03:12:53;17.05;;;5.70;;
46136;SDS011;31871;49.418;8.752;2022-10-30T03:15:19;22.55;;;5.25;;
46136;SDS011;31871;49.418;8.752;2022-10-30T03:17:45;19.20;;;4.88;;
46136;SDS011;31871;49.418;8.752;2022-10-30T03:20:11;14.05;;;4.97;;
46136;SDS011;31871;49.418;8.752;2022-10-30T03:22:37;23.17;;;5.65;;
46136;SDS011;31871;49.418;8.752;2022-10-30T03:25:03;17.30;;;5.20;;
46136;SDS011;31871;49.418;8.752;2022-10-30T03:27:29;22.25;;;5.03;;
46136;SDS011;31871;49.418;8.752;2022-10-30T03:29:54;24.85;;;5.35;;
46136;SDS011;31871;49.418;8.752;2022-10-30T03:32:20;13.70;;;4.85;;
46136;SDS011;31871;49.418;8.752;2022-10-30T03:34:45;18.25;;;4.95;;
46136;SDS011;31871;49.418;8.752;2022-10-30T03:37:11;17.20;;;4.93;;
46136;SDS011;31871;49.418;8.752;2022-10-30T03:39:36;14.27;;;4.63;;
46136;SDS011;31871;49.418;8.752;2022-10-30T03:42:02;25.52;;;5.47;;
46136;SDS011;31871;49.418;8.752;2022-10-30T03:44:27;15.30;;;5.43;;
46136;SDS011;31871;49.418;8.752;2022-10-30T03:46:53;16.67;;;5.20;;
46136;SDS011;31871;49.418;8.752;2022-10-30T03:49:18;10.68;;;4.28;;
46136;SDS011;31871;49.418;8.752;2022-10-30T03:51:44;22.58;;;5.70;;
46136;SDS011;31871;49.418;8.752;2022-10-30T03:54:09;17.70;;;5.47;;
46136;SDS011;31871;49.418;8.752;2022-10-30T03:56:35;22.92;;;5.10;;
46136;SDS011;31871;49.418;8.752;2022-10-30T03:59:00;15.32;;;5.20;;
46136;SDS011;31871;49.418;8.752;2022-10-30T04:01:26;12.05;;;4.63;;
46136;SDS011;31871;49.418;8.752;2022-10-30T04:03:51;17.95;;;4.90;;
46136;SDS011;31871;49.418;8.752;2022-10-30T04:06:17;21.08;;;4.97;;
46136;SDS011;31871;49.418;8.752;2022-10-30T04:08:43;29.52;;;6.40;;
46136;SDS011;31871;49.418;8.752;2022-10-30T04:11:08;13.45;;;4.90;;
46136;SDS011;31871;49.418;8.752;2022-10-30T04:13:37;14.63;;;5.45;;
46136;SDS011;31871;49.418;8.752;2022-10-30T04:16:03;18.77;;;5.53;;
46136;SDS011;31871;49.418;8.752;2022-10-30T04:18:30;23.35;;;5.25;;
46136;SDS011;31871;49.418;8.752;2022-10-30T04:20:57;20.00;;;5.20;;
46136;SDS011;31871;49.418;8.752;2022-10-30T04:23:23;15.48;;;4.45;;
46136;SDS011;31871;49.418;8.752;2022-10-30T04:25:49;29.33;;;5.00;;
46136;SDS011;31871;49.418;8.752;2022-10-30T04:28:15;28.15;;;5.03;;
46136;SDS011;31871;49.418;8.752;2022-10-30T04:30:40;26.73;;;4.65;;
46136;SDS011;31871;49.418;8.752;2022-10-30T04:33:07;19.10;;;5.00;;
46136;SDS011;31871;49.418;8.752;2022-10-30T04:35:36;18.50;;;5.35;;
46136;SDS011;31871;49.418;8.752;2022-10-30T04:38:06;21.65;;;5.35;;
46136;SDS011;31871;49.418;8.752;2022-10-30T04:40:35;21.40;;;4.95;;
46136;SDS011;31871;49.418;8.752;2022-10-30T04:43:02;11.43;;;5.38;;
46136;SDS011;31871;49.418;8.752;2022-10-30T04:45:28;26.55;;;5.38;;
46136;SDS011;31871;49.418;8.752;2022-10-30T04:48:27;23.45;;;4.80;;
46136;SDS011;31871;49.418;8.752;2022-10-30T04:50:46;23.63;;;5.13;;
46136;SDS011;31871;49.418;8.752;2022-10-30T04:53:13;15.68;;;5.18;;
46136;SDS011;31871;49.418;8.752;2022-10-30T04:55:40;11.52;;;4.93;;
46136;SDS011;31871;49.418;8.752;2022-10-30T04:58:07;10.98;;;4.65;;
46136;SDS011;31871;49.418;8.752;2022-10-30T05:00:33;20.02;;;5.35;;
46136;SDS011;31871;49.418;8.752;2022-10-30T05:02:59;12.13;;;4.68;;
46136;SDS011;31871;49.418;8.752;2022-10-30T05:05:26;24.88;;;5.57;;
46136;SDS011;31871;49.418;8.752;2022-10-30T05:07:53;19.55;;;5.15;;
46136;SDS011;31871;49.418;8.752;2022-10-30T05:10:18;21.52;;;5.45;;
46136;SDS011;31871;49.418;8.752;2022-10-30T05:12:44;18.13;;;5.63;;
46136;SDS011;31871;49.418;8.752;2022-10-30T05:15:10;14.20;;;4.32;;
46136;SDS011;31871;49.418;8.752;2022-10-30T05:17:37;22.83;;;5.22;;
46136;SDS011;31871;49.418;8.752;2022-10-30T05:20:03;20.67;;;5.20;;
46136;SDS011;31871;49.418;8.752;2022-10-30T05:22:30;23.55;;;5.25;;
46136;SDS011;31871;49.418;8.752;2022-10-30T05:24:55;13.23;;;4.85;;
46136;SDS011;31871;49.418;8.752;2022-10-30T05:27:21;17.92;;;5.38;;
46136;SDS011;31871;49.418;8.752;2022-10-30T05:29:46;25.05;;;5.80;;
46136;SDS011;31871;49.418;8.752;2022-10-30T05:32:12;24.58;;;5.15;;
46136;SDS011;31871;49.418;8.752;2022-10-30T05:34:37;14.57;;;5.53;;
46136;SDS011;31871;49.418;8.752;2022-10-30T05:37:03;21.42;;;5.72;;
46136;SDS011;31871;49.418;8.752;2022-10-30T05:39:28;19.33;;;5.28;;
46136;SDS011;31871;49.418;8.752;2022-10-30T05:41:54;27.65;;;5.50;;
46136;SDS011;31871;49.418;8.752;2022-10-30T05:44:19;13.98;;;6.75;;
46136;SDS011;31871;49.418;8.752;2022-10-30T05:46:45;21.42;;;5.43;;
46136;SDS011;31871;49.418;8.752;2022-10-30T05:49:10;12.85;;;4.93;;
46136;SDS011;31871;49.418;8.752;2022-10-30T05:51:36;22.95;;;5.95;;
46136;SDS011;31871;49.418;8.752;2022-10-30T05:54:01;23.00;;;6.10;;
46136;SDS011;31871;49.418;8.752;2022-10-30T05:56:27;28.08;;;6.00;;
46136;SDS011;31871;49.418;8.752;2022-10-30T05:58:52;13.45;;;5.30;;
46136;SDS011;31871;49.418;8.752;2022-10-30T06:01:18;67.18;;;6.90;;
46136;SDS011;31871;49.418;8.752;2022-10-30T06:03:43;47.63;;;6.00;;
46136;SDS011;31871;49.418;8.752;2022-10-30T06:06:09;19.25;;;5.85;;
46136;SDS011;31871;49.418;8.752;2022-10-30T06:08:35;17.92;;;5.35;;
46136;SDS011;31871;49.418;8.752;2022-10-30T06:11:00;16.00;;;5.55;;
46136;SDS011;31871;49.418;8.752;2022-10-30T06:13:26;21.75;;;5.07;;
46136;SDS011;31871;49.418;8.752;2022-10-30T06:15:55;19.17;;;5.43;;
46136;SDS011;31871;49.418;8.752;2022-10-30T06:18:21;17.45;;;6.05;;
46136;SDS011;31871;49.418;8.752;2022-10-30T06:20:47;31.02;;;5.38;;
46136;SDS011;31871;49.418;8.752;2022-10-30T06:23:13;20.15;;;6.03;;
46136;SDS011;31871;49.418;8.752;2022-10-30T06:25:39;23.15;;;5.75;;
46136;SDS011;31871;49.418;8.752;2022-10-30T06:28:04;21.45;;;5.18;;
46136;SDS011;31871;49.418;8.752;2022-10-30T06:30:30;11.88;;;5.72;;
46136;SDS011;31871;49.418;8.752;2022-10-30T06:35:23;34.13;;;4.90;;
46136;SDS011;31871;49.418;8.752;2022-10-30T06:37:49;31.55;;;4.90;;
46136;SDS011;31871;49.418;8.752;2022-10-30T06:40:17;17.67;;;5.68;;
46136;SDS011;31871;49.418;8.752;2022-10-30T06:42:46;13.80;;;5.95;;
46136;SDS011;31871;49.418;8.752;2022-10-30T06:45:13;10.90;;;4.60;;
46136;SDS011;31871;49.418;8.752;2022-10-30T06:47:40;15.18;;;5.40;;
46136;SDS011;31871;49.418;8.752;2022-10-30T06:50:07;18.95;;;5.47;;
46136;SDS011;31871;49.418;8.752;2022-10-30T06:52:37;13.75;;;5.00;;
46136;SDS011;31871;49.418;8.752;2022-10-30T06:55:03;28.85;;;5.45;;
46136;SDS011;31871;49.418;8.752;2022-10-30T06:57:29;16.00;;;4.72;;
46136;SDS011;31871;49.418;8.752;2022-10-30T06:59:55;25.00;;;5.32;;
46136;SDS011;31871;49.418;8.752;2022-10-30T07:02:20;18.42;;;5.43;;
46136;SDS011;31871;49.418;8.752;2022-10-30T07:04:46;21.63;;;6.75;;
46136;SDS011;31871;49.418;8.752;2022-10-30T07:07:12;14.90;;;5.10;;
46136;SDS011;31871;49.418;8.752;2022-10-30T07:09:38;15.23;;;5.20;;
46136;SDS011;31871;49.418;8.752;2022-10-30T07:12:04;22.63;;;5.45;;
46136;SDS011;31871;49.418;8.752;2022-10-30T07:14:30;17.52;;;4.90;;
46136;SDS011;31871;49.418;8.752;2022-10-30T07:16:56;15.90;;;5.88;;
46136;SDS011;31871;49.418;8.752;2022-10-30T07:19:22;18.13;;;5.30;;
46136;SDS011;31871;49.418;8.752;2022-10-30T07:21:48;11.05;;;5.10;;
46136;SDS011;31871;49.418;8.752;2022-10-30T07:24:13;13.43;;;4.97;;
46136;SDS011;31871;49.418;8.752;2022-10-30T07:26:39;10.10;;;5.28;;
46136;SDS011;31871;49.418;8.752;2022-10-30T07:29:04;17.65;;;5.35;;
46136;SDS011;31871;49.418;8.752;2022-10-30T07:31:30;16.85;;;4.22;;
46136;SDS011;31871;49.418;8.752;2022-10-30T07:33:56;21.48;;;5.18;;
46136;SDS011;31871;49.418;8.752;2022-10-30T07:36:22;13.45;;;5.35;;
46136;SDS011;31871;49.418;8.752;2022-10-30T07:38:48;14.77;;;5.57;;
46136;SDS011;31871;49.418;8.752;2022-10-30T07:41:14;13.23;;;4.90;;
46136;SDS011;31871;49.418;8.752;2022-10-30T07:43:41;17.70;;;4.68;;
46136;SDS011;31871;49.418;8.752;2022-10-30T07:46:06;10.27;;;4.40;;
46136;SDS011;31871;49.418;8.752;2022-10-30T07:48:32;19.42;;;5.93;;
46136;SDS011;31871;49.418;8.752;2022-10-30T07:50:57;18.55;;;5.05;;
46136;SDS011;31871;49.418;8.752;2022-10-30T07:53:23;14.02;;;5.15;;
46136;SDS011;31871;49.418;8.752;2022-10-30T07:55:48;15.35;;;4.97;;
46136;SDS011;31871;49.418;8.752;2022-10-30T07:58:14;13.45;;;5.55;;
46136;SDS011;31871;49.418;8.752;2022-10-30T08:00:39;26.58;;;5.55;;
46136;SDS011;31871;49.418;8.752;2022-10-30T08:03:05;13.07;;;5.40;;
46136;SDS011;31871;49.418;8.752;2022-10-30T08:05:31;15.25;;;5.78;;
46136;SDS011;31871;49.418;8.752;2022-10-30T08:07:56;14.00;;;6.00;;
46136;SDS011;31871;49.418;8.752;2022-10-30T08:10:22;21.13;;;5.97;;
46136;SDS011;31871;49.418;8.752;2022-10-30T08:12:48;11.55;;;5.32;;
46136;SDS011;31871;49.418;8.752;2022-10-30T08:15:13;17.13;;;5.40;;
46136;SDS011;31871;49.418;8.752;2022-10-30T08:17:42;13.35;;;6.15;;
46136;SDS011;31871;49.418;8.752;2022-10-30T08:20:10;12.77;;;5.63;;
46136;SDS011;31871;49.418;8.752;2022-10-30T08:22:46;14.85;;;5.68;;
46136;SDS011;31871;49.418;8.752;2022-10-30T08:25:13;16.65;;;5.90;;
46136;SDS011;31871;49.418;8.752;2022-10-30T08:27:48;17.75;;;6.18;;
46136;SDS011;31871;49.418;8.752;2022-10-30T08:30:21;18.25;;;5.88;;
46136;SDS011;31871;49.418;8.752;2022-10-30T08:32:48;15.02;;;5.60;;
46136;SDS011;31871;49.418;8.752;2022-10-30T08:35:14;11.63;;;5.40;;
46136;SDS011;31871;49.418;8.752;2022-10-30T08:37:40;12.68;;;5.78;;
46136;SDS011;31871;49.418;8.752;2022-10-30T08:40:06;18.75;;;5.65;;
46136;SDS011;31871;49.418;8.752;2022-10-30T08:42:33;12.48;;;5.05;;
46136;SDS011;31871;49.418;8.752;2022-10-30T08:44:59;12.63;;;5.30;;
46136;SDS011;31871;49.418;8.752;2022-10-30T08:47:25;17.10;;;6.03;;
46136;SDS011;31871;49.418;8.752;2022-10-30T08:49:50;16.58;;;5.80;;
46136;SDS011;31871;49.418;8.752;2022-10-30T08:52:16;16.40;;;5.57;;
46136;SDS011;31871;49.418;8.752;2022-10-30T08:54:41;7.93;;;4.38;;
46136;SDS011;31871;49.418;8.752;2022-10-30T08:57:07;11.35;;;4.82;;
46136;SDS011;31871;49.418;8.752;2022-10-30T08:59:32;12.63;;;4.70;;
46136;SDS011;31871;49.418;8.752;2022-10-30T09:01:58;20.17;;;5.70;;
46136;SDS011;31871;49.418;8.752;2022-10-30T09:04:23;8.75;;;4.13;;
46136;SDS011;31871;49.418;8.752;2022-10-30T09:06:49;13.70;;;5.07;;
46136;SDS011;31871;49.418;8.752;2022-10-30T09:09:15;8.38;;;3.92;;
46136;SDS011;31871;49.418;8.752;2022-10-30T09:11:40;16.27;;;4.18;;
46136;SDS011;31871;49.418;8.752;2022-10-30T09:14:06;8.63;;;4.35;;
46136;SDS011;31871;49.418;8.752;2022-10-30T09:16:31;12.20;;;3.63;;
46136;SDS011;31871;49.418;8.752;2022-10-30T09:18:57;8.95;;;3.38;;
46136;SDS011;31871;49.418;8.752;2022-10-30T09:21:22;26.08;;;4.95;;
46136;SDS011;31871;49.418;8.752;2022-10-30T09:23:48;17.15;;;4.68;;
46136;SDS011;31871;49.418;8.752;2022-10-30T09:26:13;10.23;;;4.55;;
46136;SDS011;31871;49.418;8.752;2022-10-30T09:28:39;15.20;;;4.63;;
46136;SDS011;31871;49.418;8.752;2022-10-30T09:31:04;13.80;;;3.88;;
46136;SDS011;31871;49.418;8.752;2022-10-30T09:33:30;19.08;;;3.85;;
46136;SDS011;31871;49.418;8.752;2022-10-30T09:35:55;8.75;;;3.90;;
46136;SDS011;31871;49.418;8.752;2022-10-30T09:38:21;16.38;;;4.68;;
46136;SDS011;31871;49.418;8.752;2022-10-30T09:46:18;11.15;;;4.53;;
46136;SDS011;31871;49.418;8.752;2022-10-30T09:48:58;12.25;;;3.65;;
46136;SDS011;31871;49.418;8.752;2022-10-30T09:51:41;17.48;;;3.95;;
46136;SDS011;31871;49.418;8.752;2022-10-30T09:54:16;10.70;;;3.85;;
46136;SDS011;31871;49.418;8.752;2022-10-30T09:56:48;12.95;;;3.67;;
46136;SDS011;31871;49.418;8.752;2022-10-30T09:59:21;8.10;;;3.50;;
46136;SDS011;31871;49.418;8.752;2022-10-30T10:01:51;11.80;;;3.53;;
46136;SDS011;31871;49.418;8.752;2022-10-30T10:04:40;15.45;;;3.95;;
46136;SDS011;31871;49.418;8.752;2022-10-30T10:09:44;8.15;;;3.40;;
46136;SDS011;31871;49.418;8.752;2022-10-30T10:12:21;13.90;;;4.53;;
46136;SDS011;31871;49.418;8.752;2022-10-30T10:14:53;7.28;;;3.42;;
46136;SDS011;31871;49.418;8.752;2022-10-30T10:17:27;12.75;;;3.75;;
46136;SDS011;31871;49.418;8.752;2022-10-30T10:19:59;20.52;;;4.63;;
46136;SDS011;31871;49.418;8.752;2022-10-30T10:25:04;8.95;;;3.63;;
46136;SDS011;31871;49.418;8.752;2022-10-30T10:30:14;10.55;;;3.70;;
46136;SDS011;31871;49.418;8.752;2022-10-30T10:38:35;10.02;;;3.97;;
46136;SDS011;31871;49.418;8.752;2022-10-30T10:41:39;12.32;;;3.80;;
46136;SDS011;31871;49.418;8.752;2022-10-30T10:47:08;14.33;;;3.63;;
46136;SDS011;31871;49.418;8.752;2022-10-30T10:52:44;12.63;;;3.78;;
46136;SDS011;31871;49.418;8.752;2022-10-30T10:55:20;15.43;;;3.58;;
46136;SDS011;31871;49.418;8.752;2022-10-30T10:57:48;11.82;;;3.72;;
46136;SDS011;31871;49.418;8.752;2022-10-30T11:00:20;9.75;;;3.58;;
46136;SDS011;31871;49.418;8.752;2022-10-30T11:02:55;9.25;;;4.00;;
46136;SDS011;31871;49.418;8.752;2022-10-30T11:05:33;12.60;;;4.30;;
46136;SDS011;31871;49.418;8.752;2022-10-30T11:08:09;9.82;;;3.72;;
46136;SDS011;31871;49.418;8.752;2022-10-30T11:10:39;11.40;;;4.13;;
46136;SDS011;31871;49.418;8.752;2022-10-30T11:13:04;10.80;;;3.72;;
46136;SDS011;31871;49.418;8.752;2022-10-30T11:18:03;19.08;;;3.75;;
46136;SDS011;31871;49.418;8.752;2022-10-30T11:20:40;12.77;;;3.95;;
46136;SDS011;31871;49.418;8.752;2022-10-30T11:36:46;17.25;;;3.70;;
46136;SDS011;31871;49.418;8.752;2022-10-30T11:39:20;12.55;;;3.30;;
46136;SDS011;31871;49.418;8.752;2022-10-30T11:44:28;16.70;;;3.25;;
46136;SDS011;31871;49.418;8.752;2022-10-30T11:46:56;19.05;;;4.03;;
46136;SDS011;31871;49.418;8.752;2022-10-30T11:49:44;15.55;;;3.80;;
46136;SDS011;31871;49.418;8.752;2022-10-30T11:52:20;12.20;;;4.10;;
46136;SDS011;31871;49.418;8.752;2022-10-30T11:54:49;8.70;;;3.50;;
46136;SDS011;31871;49.418;8.752;2022-10-30T11:57:34;20.55;;;4.22;;
46136;SDS011;31871;49.418;8.752;2022-10-30T12:00:00;20.30;;;3.55;;
46136;SDS011;31871;49.418;8.752;2022-10-30T12:02:31;14.88;;;3.70;;
46136;SDS011;31871;49.418;8.752;2022-10-30T12:05:41;10.93;;;3.28;;
46136;SDS011;31871;49.418;8.752;2022-10-30T12:10:33;11.43;;;3.47;;
46136;SDS011;31871;49.418;8.752;2022-10-30T12:13:14;14.00;;;3.50;;
46136;SDS011;31871;49.418;8.752;2022-10-30T12:15:42;26.30;;;3.75;;
46136;SDS011;31871;49.418;8.752;2022-10-30T12:18:20;7.72;;;3.05;;
46136;SDS011;31871;49.418;8.752;2022-10-30T12:20:51;16.13;;;3.35;;
46136;SDS011;31871;49.418;8.752;2022-10-30T12:23:20;10.65;;;2.72;;
46136;SDS011;31871;49.418;8.752;2022-10-30T12:25:50;14.13;;;4.18;;
46136;SDS011;31871;49.418;8.752;2022-10-30T12:28:18;9.15;;;3.05;;
46136;SDS011;31871;49.418;8.752;2022-10-30T12:36:01;14.98;;;3.13;;
46136;SDS011;31871;49.418;8.752;2022-10-30T12:39:19;10.32;;;3.38;;
46136;SDS011;31871;49.418;8.752;2022-10-30T12:41:28;13.43;;;2.90;;
46136;SDS011;31871;49.418;8.752;2022-10-30T12:44:17;8.45;;;3.40;;
46136;SDS011;31871;49.418;8.752;2022-10-30T12:46:53;13.20;;;2.70;;
46136;SDS011;31871;49.418;8.752;2022-10-30T12:49:40;12.75;;;2.88;;
46136;SDS011;31871;49.418;8.752;2022-10-30T12:57:27;15.63;;;3.45;;
46136;SDS011;31871;49.418;8.752;2022-10-30T13:05:04;13.38;;;3.63;;
46136;SDS011;31871;49.418;8.752;2022-10-30T13:10:43;8.63;;;2.63;;
46136;SDS011;31871;49.418;8.752;2022-10-30T13:13:18;15.63;;;2.85;;
46136;SDS011;31871;49.418;8.752;2022-10-30T13:15:50;9.70;;;2.72;;
46136;SDS011;31871;49.418;8.752;2022-10-30T13:18:21;5.65;;;2.30;;
46136;SDS011;31871;49.418;8.752;2022-10-30T13:20:54;15.82;;;3.33;;
46136;SDS011;31871;49.418;8.752;2022-10-30T13:23:37;7.97;;;2.50;;
46136;SDS011;31871;49.418;8.752;2022-10-30T13:28:39;16.00;;;2.83;;
46136;SDS011;31871;49.418;8.752;2022-10-30T13:36:50;9.30;;;3.15;;
46136;SDS011;31871;49.418;8.752;2022-10-30T13:42:21;15.50;;;3.30;;
46136;SDS011;31871;49.418;8.752;2022-10-30T13:47:45;12.25;;;2.10;;
46136;SDS011;31871;49.418;8.752;2022-10-30T13:50:28;7.68;;;2.70;;
46136;SDS011;31871;49.418;8.752;2022-10-30T13:53:19;9.88;;;2.45;;
46136;SDS011;31871;49.418;8.752;2022-10-30T13:55:53;5.30;;;1.80;;
46136;SDS011;31871;49.418;8.752;2022-10-30T13:58:40;8.43;;;2.15;;
46136;SDS011;31871;49.418;8.752;2022-10-30T14:01:29;8.63;;;2.15;;
46136;SDS011;31871;49.418;8.752;2022-10-30T14:04:32;9.70;;;2.47;;
46136;SDS011;31871;49.418;8.752;2022-10-30T14:09:57;6.05;;;2.15;;
46136;SDS011;31871;49.418;8.752;2022-10-30T14:23:19;11.38;;;3.28;;
46136;SDS011;31871;49.418;8.752;2022-10-30T14:28:29;16.05;;;2.55;;
46136;SDS011;31871;49.418;8.752;2022-10-30T14:31:12;9.93;;;3.05;;
46136;SDS011;31871;49.418;8.752;2022-10-30T14:33:57;9.68;;;2.45;;
46136;SDS011;31871;49.418;8.752;2022-10-30T14:36:24;8.80;;;2.30;;
46136;SDS011;31871;49.418;8.752;2022-10-30T14:38:59;10.05;;;2.45;;
46136;SDS011;31871;49.418;8.752;2022-10-30T14:55:03;22.80;;;7.75;;
46136;SDS011;31871;49.418;8.752;2022-10-30T14:57:50;28.88;;;10.20;;
46136;SDS011;31871;49.418;8.752;2022-10-30T15:05:38;11.85;;;2.83;;
46136;SDS011;31871;49.418;8.752;2022-10-30T15:11:21;15.35;;;3.33;;
46136;SDS011;31871;49.418;8.752;2022-10-30T15:13:54;22.35;;;3.47;;
46136;SDS011;31871;49.418;8.752;2022-10-30T15:16:25;12.13;;;3.33;;
46136;SDS011;31871;49.418;8.752;2022-10-30T15:19:02;10.32;;;3.20;;
46136;SDS011;31871;49.418;8.752;2022-10-30T15:21:30;16.27;;;3.42;;
46136;SDS011;31871;49.418;8.752;2022-10-30T15:24:04;20.20;;;3.55;;
46136;SDS011;31871;49.418;8.752;2022-10-30T15:26:40;14.00;;;3.35;;
46136;SDS011;31871;49.418;8.752;2022-10-30T15:29:30;8.45;;;3.20;;
46136;SDS011;31871;49.418;8.752;2022-10-30T15:34:30;7.88;;;3.50;;
46136;SDS011;31871;49.418;8.752;2022-10-30T15:36:57;16.45;;;4.10;;
46136;SDS011;31871;49.418;8.752;2022-10-30T15:39:23;19.67;;;4.70;;
46136;SDS011;31871;49.418;8.752;2022-10-30T15:41:50;16.00;;;3.70;;
46136;SDS011;31871;49.418;8.752;2022-10-30T15:44:21;11.68;;;2.70;;
46136;SDS011;31871;49.418;8.752;2022-10-30T15:46:58;9.70;;;2.78;;
46136;SDS011;31871;49.418;8.752;2022-10-30T15:49:30;9.57;;;2.30;;
46136;SDS011;31871;49.418;8.752;2022-10-30T15:51:58;14.15;;;2.53;;
46136;SDS011;31871;49.418;8.752;2022-10-30T15:54:26;13.55;;;3.20;;
46136;SDS011;31871;49.418;8.752;2022-10-30T15:56:54;11.02;;;2.90;;
46136;SDS011;31871;49.418;8.752;2022-10-30T15:59:22;15.35;;;3.13;;
46136;SDS011;31871;49.418;8.752;2022-10-30T16:01:50;10.07;;;3.13;;
46136;SDS011;31871;49.418;8.752;2022-10-30T16:04:19;18.42;;;4.15;;
46136;SDS011;31871;49.418;8.752;2022-10-30T16:06:56;9.10;;;3.90;;
46136;SDS011;31871;49.418;8.752;2022-10-30T16:09:24;16.60;;;3.90;;
46136;SDS011;31871;49.418;8.752;2022-10-30T16:11:51;19.02;;;4.43;;
46136;SDS011;31871;49.418;8.752;2022-10-30T16:14:20;10.45;;;4.55;;
46136;SDS011;31871;49.418;8.752;2022-10-30T16:16:48;13.45;;;3.45;;
46136;SDS011;31871;49.418;8.752;2022-10-30T16:19:22;6.65;;;2.70;;
46136;SDS011;31871;49.418;8.752;2022-10-30T16:21:54;7.18;;;2.83;;
46136;SDS011;31871;49.418;8.752;2022-10-30T16:24:21;9.27;;;2.85;;
46136;SDS011;31871;49.418;8.752;2022-10-30T16:27:00;12.07;;;2.67;;
46136;SDS011;31871;49.418;8.752;2022-10-30T16:29:30;7.18;;;3.13;;
46136;SDS011;31871;49.418;8.752;2022-10-30T16:31:57;15.32;;;3.22;;
46136;SDS011;31871;49.418;8.752;2022-10-30T16:34:25;7.22;;;3.10;;
46136;SDS011;31871;49.418;8.752;2022-10-30T16:36:58;11.18;;;3.40;;
46136;SDS011;31871;49.418;8.752;2022-10-30T16:39:25;19.33;;;3.53;;
46136;SDS011;31871;49.418;8.752;2022-10-30T16:41:54;13.80;;;4.22;;
46136;SDS011;31871;49.418;8.752;2022-10-30T16:47:04;10.60;;;3.88;;
46136;SDS011;31871;49.418;8.752;2022-10-30T16:49:44;9.68;;;4.68;;
46136;SDS011;31871;49.418;8.752;2022-10-30T16:52:13;23.67;;;5.15;;
46136;SDS011;31871;49.418;8.752;2022-10-30T16:54:41;13.77;;;4.18;;
46136;SDS011;31871;49.418;8.752;2022-10-30T16:57:24;13.63;;;4.65;;
46136;SDS011;31871;49.418;8.752;2022-10-30T16:59:52;24.42;;;4.63;;
46136;SDS011;31871;49.418;8.752;2022-10-30T17:02:25;16.70;;;3.90;;
46136;SDS011;31871;49.418;8.752;2022-10-30T17:04:54;16.48;;;3.55;;
46136;SDS011;31871;49.418;8.752;2022-10-30T17:09:53;12.95;;;4.40;;
46136;SDS011;31871;49.418;8.752;2022-10-30T17:17:32;17.10;;;5.82;;
46136;SDS011;31871;49.418;8.752;2022-10-30T17:20:02;22.38;;;5.95;;